sensor_id;sensor_type;location;lat;lon;timestamp;P1;durP1;ratioP1;P2;durP2;ratioP2
51985;SDS011;38002;53.296;6.600;2023-02-11T00:03:50;13.13;;;4.43;;
51985;SDS011;38002;53.296;6.600;2023-02-11T00:08:51;14.45;;;5.18;;
51985;SDS011;38002;53.296;6.600;2023-02-11T00:13:51;28.10;;;4.40;;
51985;SDS011;38002;53.296;6.600;2023-02-11T00:18:52;24.27;;;5.15;;
51985;SDS011;38002;53.296;6.600;2023-02-11T00:23:53;16.98;;;5.47;;
51985;SDS011;38002;53.296;6.600;2023-02-11T00:28:56;22.67;;;5.80;;
51985;SDS011;38002;53.296;6.600;2023-02-11T00:33:56;26.95;;;4.35;;
51985;SDS011;38002;53.296;6.600;2023-02-11T00:38:57;13.38;;;5.13;;
51985;SDS011;38002;53.296;6.600;2023-02-11T00:43:58;25.25;;;5.78;;
51985;SDS011;38002;53.296;6.600;2023-02-11T00:49:00;19.15;;;5.68;;
51985;SDS011;38002;53.296;6.600;2023-02-11T00:54:00;24.10;;;5.50;;
51985;SDS011;38002;53.296;6.600;2023-02-11T00:59:00;19.02;;;5.50;;
51985;SDS011;38002;53.296;6.600;2023-02-11T01:04:01;20.42;;;5.75;;
51985;SDS011;38002;53.296;6.600;2023-02-11T01:09:01;20.85;;;5.68;;
51985;SDS011;38002;53.296;6.600;2023-02-11T01:14:02;17.80;;;5.63;;
51985;SDS011;38002;53.296;6.600;2023-02-11T01:19:03;24.67;;;5.50;;
51985;SDS011;38002;53.296;6.600;2023-02-11T01:24:03;23.70;;;5.93;;
51985;SDS011;38002;53.296;6.600;2023-02-11T01:29:04;20.20;;;6.18;;
51985;SDS011;38002;53.296;6.600;2023-02-11T01:34:04;26.48;;;7.43;;
51985;SDS011;38002;53.296;6.600;2023-02-11T01:39:05;27.25;;;6.57;;
51985;SDS011;38002;53.296;6.600;2023-02-11T01:49:45;23.67;;;6.97;;
51985;SDS011;38002;53.296;6.600;2023-02-11T01:54:50;23.17;;;6.63;;
51985;SDS011;38002;53.296;6.600;2023-02-11T02:00:13;17.13;;;5.93;;
51985;SDS011;38002;53.296;6.600;2023-02-11T02:10:26;28.02;;;6.97;;
51985;SDS011;38002;53.296;6.600;2023-02-11T02:15:35;22.85;;;7.40;;
51985;SDS011;38002;53.296;6.600;2023-02-11T02:25:52;18.80;;;7.72;;
51985;SDS011;38002;53.296;6.600;2023-02-11T02:31:09;28.73;;;7.82;;
51985;SDS011;38002;53.296;6.600;2023-02-11T02:36:28;26.77;;;9.45;;
51985;SDS011;38002;53.296;6.600;2023-02-11T02:41:40;21.55;;;7.95;;
51985;SDS011;38002;53.296;6.600;2023-02-11T02:46:41;22.42;;;8.43;;
51985;SDS011;38002;53.296;6.600;2023-02-11T03:02:39;28.65;;;9.25;;
51985;SDS011;38002;53.296;6.600;2023-02-11T03:07:52;18.88;;;8.82;;
51985;SDS011;38002;53.296;6.600;2023-02-11T03:13:08;28.80;;;9.73;;
51985;SDS011;38002;53.296;6.600;2023-02-11T03:18:11;24.92;;;10.05;;
51985;SDS011;38002;53.296;6.600;2023-02-11T03:23:15;34.50;;;11.43;;
51985;SDS011;38002;53.296;6.600;2023-02-11T03:33:34;38.40;;;11.50;;
51985;SDS011;38002;53.296;6.600;2023-02-11T03:38:46;27.38;;;10.23;;
51985;SDS011;38002;53.296;6.600;2023-02-11T03:43:55;31.33;;;11.65;;
51985;SDS011;38002;53.296;6.600;2023-02-11T03:49:05;26.42;;;10.77;;
51985;SDS011;38002;53.296;6.600;2023-02-11T03:54:13;29.67;;;11.18;;
51985;SDS011;38002;53.296;6.600;2023-02-11T03:59:17;22.30;;;11.45;;
51985;SDS011;38002;53.296;6.600;2023-02-11T04:04:18;28.83;;;11.95;;
51985;SDS011;38002;53.296;6.600;2023-02-11T04:09:19;29.55;;;12.07;;
51985;SDS011;38002;53.296;6.600;2023-02-11T04:14:19;26.83;;;12.25;;
51985;SDS011;38002;53.296;6.600;2023-02-11T04:19:19;29.33;;;12.43;;
51985;SDS011;38002;53.296;6.600;2023-02-11T04:24:20;31.73;;;12.70;;
51985;SDS011;38002;53.296;6.600;2023-02-11T04:29:20;36.30;;;13.00;;
51985;SDS011;38002;53.296;6.600;2023-02-11T04:34:21;27.80;;;13.00;;
51985;SDS011;38002;53.296;6.600;2023-02-11T04:39:23;38.35;;;14.60;;
51985;SDS011;38002;53.296;6.600;2023-02-11T04:44:23;32.55;;;13.55;;
51985;SDS011;38002;53.296;6.600;2023-02-11T04:49:24;31.27;;;13.13;;
51985;SDS011;38002;53.296;6.600;2023-02-11T04:54:24;32.75;;;13.55;;
51985;SDS011;38002;53.296;6.600;2023-02-11T04:59:25;28.25;;;13.25;;
51985;SDS011;38002;53.296;6.600;2023-02-11T05:04:25;29.20;;;13.88;;
51985;SDS011;38002;53.296;6.600;2023-02-11T05:09:26;28.73;;;12.77;;
51985;SDS011;38002;53.296;6.600;2023-02-11T05:14:26;30.05;;;12.55;;
51985;SDS011;38002;53.296;6.600;2023-02-11T05:19:27;34.05;;;13.85;;
51985;SDS011;38002;53.296;6.600;2023-02-11T05:24:27;25.77;;;12.60;;
51985;SDS011;38002;53.296;6.600;2023-02-11T05:29:28;25.67;;;13.07;;
51985;SDS011;38002;53.296;6.600;2023-02-11T05:34:28;27.42;;;12.10;;
51985;SDS011;38002;53.296;6.600;2023-02-11T05:39:29;22.98;;;10.85;;
51985;SDS011;38002;53.296;6.600;2023-02-11T05:44:30;23.17;;;11.32;;
51985;SDS011;38002;53.296;6.600;2023-02-11T05:49:30;28.25;;;12.13;;
51985;SDS011;38002;53.296;6.600;2023-02-11T05:54:30;32.78;;;11.07;;
51985;SDS011;38002;53.296;6.600;2023-02-11T05:59:31;24.73;;;11.32;;
51985;SDS011;38002;53.296;6.600;2023-02-11T06:04:31;27.70;;;10.70;;
51985;SDS011;38002;53.296;6.600;2023-02-11T06:09:32;24.35;;;11.02;;
51985;SDS011;38002;53.296;6.600;2023-02-11T06:14:33;27.20;;;11.55;;
51985;SDS011;38002;53.296;6.600;2023-02-11T06:19:33;22.42;;;10.00;;
51985;SDS011;38002;53.296;6.600;2023-02-11T06:24:34;19.95;;;10.95;;
51985;SDS011;38002;53.296;6.600;2023-02-11T06:29:34;18.77;;;10.70;;
51985;SDS011;38002;53.296;6.600;2023-02-11T06:34:35;22.35;;;10.70;;
51985;SDS011;38002;53.296;6.600;2023-02-11T06:39:35;23.08;;;11.40;;
51985;SDS011;38002;53.296;6.600;2023-02-11T06:44:36;26.05;;;10.88;;
51985;SDS011;38002;53.296;6.600;2023-02-11T06:49:36;23.90;;;11.05;;
51985;SDS011;38002;53.296;6.600;2023-02-11T06:54:37;24.27;;;11.23;;
51985;SDS011;38002;53.296;6.600;2023-02-11T06:59:37;25.35;;;10.82;;
51985;SDS011;38002;53.296;6.600;2023-02-11T07:04:37;22.27;;;11.93;;
51985;SDS011;38002;53.296;6.600;2023-02-11T07:09:38;28.77;;;12.65;;
51985;SDS011;38002;53.296;6.600;2023-02-11T07:14:38;27.90;;;12.02;;
51985;SDS011;38002;53.296;6.600;2023-02-11T07:19:39;23.58;;;11.27;;
51985;SDS011;38002;53.296;6.600;2023-02-11T07:24:40;26.05;;;12.02;;
51985;SDS011;38002;53.296;6.600;2023-02-11T07:29:40;34.00;;;12.57;;
51985;SDS011;38002;53.296;6.600;2023-02-11T07:34:41;20.92;;;11.35;;
51985;SDS011;38002;53.296;6.600;2023-02-11T07:39:41;22.00;;;11.02;;
51985;SDS011;38002;53.296;6.600;2023-02-11T07:44:42;23.73;;;11.07;;
51985;SDS011;38002;53.296;6.600;2023-02-11T07:49:42;16.77;;;10.20;;
51985;SDS011;38002;53.296;6.600;2023-02-11T07:54:43;21.55;;;10.20;;
51985;SDS011;38002;53.296;6.600;2023-02-11T07:59:43;23.02;;;10.23;;
51985;SDS011;38002;53.296;6.600;2023-02-11T08:04:47;21.05;;;9.70;;
51985;SDS011;38002;53.296;6.600;2023-02-11T08:09:47;16.83;;;8.82;;
51985;SDS011;38002;53.296;6.600;2023-02-11T08:14:48;28.50;;;9.55;;
51985;SDS011;38002;53.296;6.600;2023-02-11T08:19:48;23.00;;;9.80;;
51985;SDS011;38002;53.296;6.600;2023-02-11T08:24:48;16.50;;;9.23;;
51985;SDS011;38002;53.296;6.600;2023-02-11T08:29:49;20.77;;;9.48;;
51985;SDS011;38002;53.296;6.600;2023-02-11T08:34:50;22.45;;;9.07;;
51985;SDS011;38002;53.296;6.600;2023-02-11T08:39:51;20.77;;;9.77;;
51985;SDS011;38002;53.296;6.600;2023-02-11T08:44:52;24.70;;;7.90;;
51985;SDS011;38002;53.296;6.600;2023-02-11T08:49:52;18.80;;;8.77;;
51985;SDS011;38002;53.296;6.600;2023-02-11T08:54:52;20.50;;;8.00;;
51985;SDS011;38002;53.296;6.600;2023-02-11T08:59:53;18.08;;;7.10;;
51985;SDS011;38002;53.296;6.600;2023-02-11T09:04:53;22.20;;;8.07;;
51985;SDS011;38002;53.296;6.600;2023-02-11T09:09:54;25.48;;;8.77;;
51985;SDS011;38002;53.296;6.600;2023-02-11T09:14:55;15.40;;;7.85;;
51985;SDS011;38002;53.296;6.600;2023-02-11T09:19:55;16.80;;;6.30;;
51985;SDS011;38002;53.296;6.600;2023-02-11T09:24:55;17.13;;;7.45;;
51985;SDS011;38002;53.296;6.600;2023-02-11T09:29:56;22.55;;;7.47;;
51985;SDS011;38002;53.296;6.600;2023-02-11T09:34:56;18.67;;;6.95;;
51985;SDS011;38002;53.296;6.600;2023-02-11T09:39:57;19.23;;;6.30;;
51985;SDS011;38002;53.296;6.600;2023-02-11T09:44:58;17.52;;;5.53;;
51985;SDS011;38002;53.296;6.600;2023-02-11T09:50:11;17.40;;;5.63;;
51985;SDS011;38002;53.296;6.600;2023-02-11T10:00:31;19.77;;;6.50;;
51985;SDS011;38002;53.296;6.600;2023-02-11T10:05:42;20.55;;;5.55;;
51985;SDS011;38002;53.296;6.600;2023-02-11T10:10:57;21.75;;;5.78;;
51985;SDS011;38002;53.296;6.600;2023-02-11T10:16:27;15.82;;;5.38;;
51985;SDS011;38002;53.296;6.600;2023-02-11T10:21:36;11.98;;;5.15;;
51985;SDS011;38002;53.296;6.600;2023-02-11T10:26:45;19.13;;;5.05;;
51985;SDS011;38002;53.296;6.600;2023-02-11T10:31:46;16.30;;;4.43;;
51985;SDS011;38002;53.296;6.600;2023-02-11T10:36:48;14.52;;;4.30;;
51985;SDS011;38002;53.296;6.600;2023-02-11T10:41:50;15.70;;;4.38;;
51985;SDS011;38002;53.296;6.600;2023-02-11T10:46:54;15.45;;;4.43;;
51985;SDS011;38002;53.296;6.600;2023-02-11T10:57:16;10.50;;;3.17;;
51985;SDS011;38002;53.296;6.600;2023-02-11T11:07:23;14.93;;;3.67;;
51985;SDS011;38002;53.296;6.600;2023-02-11T11:17:39;9.98;;;2.42;;
51985;SDS011;38002;53.296;6.600;2023-02-11T11:22:40;15.32;;;2.58;;
51985;SDS011;38002;53.296;6.600;2023-02-11T11:27:42;11.95;;;2.72;;
51985;SDS011;38002;53.296;6.600;2023-02-11T11:32:48;18.13;;;2.40;;
51985;SDS011;38002;53.296;6.600;2023-02-11T11:38:02;11.30;;;3.13;;
51985;SDS011;38002;53.296;6.600;2023-02-11T11:53:28;17.85;;;2.90;;
51985;SDS011;38002;53.296;6.600;2023-02-11T11:58:30;9.65;;;2.40;;
51985;SDS011;38002;53.296;6.600;2023-02-11T12:09:00;14.43;;;2.45;;
51985;SDS011;38002;53.296;6.600;2023-02-11T12:40:44;13.60;;;2.13;;
51985;SDS011;38002;53.296;6.600;2023-02-11T12:45:55;14.82;;;2.40;;
51985;SDS011;38002;53.296;6.600;2023-02-11T12:51:15;16.05;;;2.60;;
51985;SDS011;38002;53.296;6.600;2023-02-11T13:01:33;11.65;;;2.13;;
51985;SDS011;38002;53.296;6.600;2023-02-11T13:06:40;13.18;;;2.30;;
51985;SDS011;38002;53.296;6.600;2023-02-11T13:11:48;11.82;;;2.00;;
51985;SDS011;38002;53.296;6.600;2023-02-11T13:16:53;7.65;;;1.73;;
51985;SDS011;38002;53.296;6.600;2023-02-11T13:27:21;6.10;;;1.77;;
51985;SDS011;38002;53.296;6.600;2023-02-11T13:43:22;12.57;;;2.40;;
51985;SDS011;38002;53.296;6.600;2023-02-11T13:48:29;11.38;;;2.13;;
51985;SDS011;38002;53.296;6.600;2023-02-11T13:58:49;10.73;;;2.35;;
51985;SDS011;38002;53.296;6.600;2023-02-11T14:04:17;9.55;;;1.70;;
51985;SDS011;38002;53.296;6.600;2023-02-11T14:09:39;10.77;;;2.47;;
51985;SDS011;38002;53.296;6.600;2023-02-11T14:20:02;14.77;;;2.22;;
51985;SDS011;38002;53.296;6.600;2023-02-11T14:25:23;8.80;;;2.03;;
51985;SDS011;38002;53.296;6.600;2023-02-11T14:40:44;11.93;;;2.70;;
51985;SDS011;38002;53.296;6.600;2023-02-11T14:45:54;14.00;;;1.92;;
51985;SDS011;38002;53.296;6.600;2023-02-11T14:50:57;13.57;;;2.13;;
51985;SDS011;38002;53.296;6.600;2023-02-11T14:56:02;11.35;;;1.75;;
51985;SDS011;38002;53.296;6.600;2023-02-11T15:01:23;8.52;;;2.17;;
51985;SDS011;38002;53.296;6.600;2023-02-11T15:11:40;73.32;;;31.13;;
51985;SDS011;38002;53.296;6.600;2023-02-11T15:16:42;166.02;;;71.43;;
51985;SDS011;38002;53.296;6.600;2023-02-11T15:21:44;63.42;;;32.13;;
51985;SDS011;38002;53.296;6.600;2023-02-11T15:27:00;19.92;;;7.07;;
51985;SDS011;38002;53.296;6.600;2023-02-11T15:37:26;15.15;;;8.30;;
51985;SDS011;38002;53.296;6.600;2023-02-11T15:42:31;18.70;;;5.85;;
51985;SDS011;38002;53.296;6.600;2023-02-11T15:47:31;13.43;;;3.35;;
51985;SDS011;38002;53.296;6.600;2023-02-11T15:52:32;14.18;;;7.03;;
51985;SDS011;38002;53.296;6.600;2023-02-11T15:57:33;25.55;;;12.80;;
51985;SDS011;38002;53.296;6.600;2023-02-11T16:02:33;12.48;;;5.90;;
51985;SDS011;38002;53.296;6.600;2023-02-11T16:13:00;18.02;;;6.22;;
51985;SDS011;38002;53.296;6.600;2023-02-11T16:23:33;19.85;;;5.80;;
51985;SDS011;38002;53.296;6.600;2023-02-11T16:28:37;17.55;;;11.38;;
51985;SDS011;38002;53.296;6.600;2023-02-11T16:33:38;13.00;;;3.27;;
51985;SDS011;38002;53.296;6.600;2023-02-11T16:38:38;18.30;;;6.15;;
51985;SDS011;38002;53.296;6.600;2023-02-11T16:43:39;19.40;;;2.78;;
51985;SDS011;38002;53.296;6.600;2023-02-11T16:48:40;19.13;;;3.35;;
51985;SDS011;38002;53.296;6.600;2023-02-11T16:53:40;17.13;;;2.63;;
51985;SDS011;38002;53.296;6.600;2023-02-11T16:58:41;12.80;;;2.88;;
51985;SDS011;38002;53.296;6.600;2023-02-11T17:03:42;24.77;;;4.50;;
51985;SDS011;38002;53.296;6.600;2023-02-11T17:08:42;19.30;;;10.23;;
51985;SDS011;38002;53.296;6.600;2023-02-11T17:13:43;15.15;;;3.72;;
51985;SDS011;38002;53.296;6.600;2023-02-11T17:18:44;16.98;;;7.95;;
51985;SDS011;38002;53.296;6.600;2023-02-11T17:23:45;21.90;;;8.73;;
51985;SDS011;38002;53.296;6.600;2023-02-11T17:28:45;19.23;;;6.57;;
51985;SDS011;38002;53.296;6.600;2023-02-11T17:33:47;19.37;;;4.77;;
51985;SDS011;38002;53.296;6.600;2023-02-11T17:38:47;13.57;;;2.50;;
51985;SDS011;38002;53.296;6.600;2023-02-11T17:43:48;18.25;;;4.40;;
51985;SDS011;38002;53.296;6.600;2023-02-11T17:48:48;21.27;;;9.88;;
51985;SDS011;38002;53.296;6.600;2023-02-11T17:53:50;27.92;;;11.70;;
51985;SDS011;38002;53.296;6.600;2023-02-11T17:58:51;17.10;;;6.68;;
51985;SDS011;38002;53.296;6.600;2023-02-11T18:03:52;13.15;;;5.43;;
51985;SDS011;38002;53.296;6.600;2023-02-11T18:08:52;18.65;;;4.82;;
51985;SDS011;38002;53.296;6.600;2023-02-11T18:13:53;16.25;;;4.70;;
51985;SDS011;38002;53.296;6.600;2023-02-11T18:18:54;14.10;;;4.03;;
51985;SDS011;38002;53.296;6.600;2023-02-11T18:23:56;12.88;;;3.80;;
51985;SDS011;38002;53.296;6.600;2023-02-11T18:28:56;18.42;;;8.27;;
51985;SDS011;38002;53.296;6.600;2023-02-11T18:33:59;14.73;;;7.18;;
51985;SDS011;38002;53.296;6.600;2023-02-11T18:39:00;17.88;;;8.30;;
51985;SDS011;38002;53.296;6.600;2023-02-11T18:44:02;20.58;;;12.73;;
51985;SDS011;38002;53.296;6.600;2023-02-11T18:49:03;17.33;;;8.57;;
51985;SDS011;38002;53.296;6.600;2023-02-11T18:54:04;35.65;;;18.30;;
51985;SDS011;38002;53.296;6.600;2023-02-11T18:59:04;25.58;;;10.43;;
51985;SDS011;38002;53.296;6.600;2023-02-11T19:04:05;24.42;;;10.15;;
51985;SDS011;38002;53.296;6.600;2023-02-11T19:09:13;12.85;;;2.72;;
51985;SDS011;38002;53.296;6.600;2023-02-11T19:14:20;14.48;;;3.13;;
51985;SDS011;38002;53.296;6.600;2023-02-11T19:19:23;13.02;;;5.68;;
51985;SDS011;38002;53.296;6.600;2023-02-11T19:24:25;12.07;;;3.72;;
51985;SDS011;38002;53.296;6.600;2023-02-11T19:29:27;18.45;;;5.07;;
51985;SDS011;38002;53.296;6.600;2023-02-11T19:34:28;16.93;;;4.67;;
51985;SDS011;38002;53.296;6.600;2023-02-11T19:39:28;15.45;;;4.05;;
51985;SDS011;38002;53.296;6.600;2023-02-11T19:44:29;16.50;;;4.10;;
51985;SDS011;38002;53.296;6.600;2023-02-11T19:49:29;10.18;;;3.20;;
51985;SDS011;38002;53.296;6.600;2023-02-11T19:54:30;27.17;;;5.03;;
51985;SDS011;38002;53.296;6.600;2023-02-11T19:59:30;17.65;;;3.75;;
51985;SDS011;38002;53.296;6.600;2023-02-11T20:04:31;12.98;;;3.38;;
51985;SDS011;38002;53.296;6.600;2023-02-11T20:09:32;13.73;;;3.33;;
51985;SDS011;38002;53.296;6.600;2023-02-11T20:14:32;16.00;;;5.32;;
51985;SDS011;38002;53.296;6.600;2023-02-11T20:19:33;19.75;;;6.93;;
51985;SDS011;38002;53.296;6.600;2023-02-11T20:24:33;19.85;;;7.85;;
51985;SDS011;38002;53.296;6.600;2023-02-11T20:29:34;7.53;;;4.30;;
51985;SDS011;38002;53.296;6.600;2023-02-11T20:34:34;12.32;;;4.47;;
51985;SDS011;38002;53.296;6.600;2023-02-11T20:39:35;15.30;;;3.97;;
51985;SDS011;38002;53.296;6.600;2023-02-11T20:44:40;14.55;;;4.00;;
51985;SDS011;38002;53.296;6.600;2023-02-11T20:49:40;15.90;;;4.85;;
51985;SDS011;38002;53.296;6.600;2023-02-11T20:54:40;18.05;;;4.72;;
51985;SDS011;38002;53.296;6.600;2023-02-11T20:59:41;19.85;;;5.15;;
51985;SDS011;38002;53.296;6.600;2023-02-11T21:04:41;8.45;;;3.72;;
51985;SDS011;38002;53.296;6.600;2023-02-11T21:09:42;15.82;;;4.22;;
51985;SDS011;38002;53.296;6.600;2023-02-11T21:14:42;16.73;;;4.63;;
51985;SDS011;38002;53.296;6.600;2023-02-11T21:19:43;12.75;;;4.85;;
51985;SDS011;38002;53.296;6.600;2023-02-11T21:24:43;16.25;;;4.70;;
51985;SDS011;38002;53.296;6.600;2023-02-11T21:29:44;12.25;;;4.43;;
51985;SDS011;38002;53.296;6.600;2023-02-11T21:34:44;15.85;;;5.18;;
51985;SDS011;38002;53.296;6.600;2023-02-11T21:39:45;15.05;;;5.90;;
51985;SDS011;38002;53.296;6.600;2023-02-11T21:44:45;13.90;;;5.60;;
51985;SDS011;38002;53.296;6.600;2023-02-11T21:49:46;24.27;;;6.75;;
51985;SDS011;38002;53.296;6.600;2023-02-11T21:54:48;19.40;;;6.15;;
51985;SDS011;38002;53.296;6.600;2023-02-11T21:59:49;17.50;;;6.03;;
51985;SDS011;38002;53.296;6.600;2023-02-11T22:04:49;14.45;;;6.13;;
51985;SDS011;38002;53.296;6.600;2023-02-11T22:09:50;18.50;;;7.32;;
51985;SDS011;38002;53.296;6.600;2023-02-11T22:14:53;21.60;;;7.10;;
51985;SDS011;38002;53.296;6.600;2023-02-11T22:19:54;19.15;;;6.93;;
51985;SDS011;38002;53.296;6.600;2023-02-11T22:24:56;12.20;;;6.47;;
51985;SDS011;38002;53.296;6.600;2023-02-11T22:29:59;21.58;;;7.65;;
51985;SDS011;38002;53.296;6.600;2023-02-11T22:34:59;18.30;;;7.10;;
51985;SDS011;38002;53.296;6.600;2023-02-11T22:39:59;15.38;;;6.22;;
51985;SDS011;38002;53.296;6.600;2023-02-11T22:45:00;14.82;;;5.85;;
51985;SDS011;38002;53.296;6.600;2023-02-11T22:50:02;11.90;;;6.22;;
51985;SDS011;38002;53.296;6.600;2023-02-11T22:55:02;16.48;;;6.65;;
51985;SDS011;38002;53.296;6.600;2023-02-11T23:00:06;19.58;;;7.07;;
51985;SDS011;38002;53.296;6.600;2023-02-11T23:05:08;18.25;;;6.72;;
51985;SDS011;38002;53.296;6.600;2023-02-11T23:10:09;11.98;;;6.68;;
51985;SDS011;38002;53.296;6.600;2023-02-11T23:15:10;17.00;;;7.03;;
51985;SDS011;38002;53.296;6.600;2023-02-11T23:20:10;19.85;;;6.43;;
51985;SDS011;38002;53.296;6.600;2023-02-11T23:25:11;21.48;;;8.45;;
51985;SDS011;38002;53.296;6.600;2023-02-11T23:30:12;11.05;;;6.30;;
51985;SDS011;38002;53.296;6.600;2023-02-11T23:35:12;21.45;;;6.93;;
51985;SDS011;38002;53.296;6.600;2023-02-11T23:40:21;22.20;;;7.20;;
51985;SDS011;38002;53.296;6.600;2023-02-11T23:45:21;16.35;;;6.18;;
51985;SDS011;38002;53.296;6.600;2023-02-11T23:50:21;18.67;;;6.75;;
51985;SDS011;38002;53.296;6.600;2023-02-11T23:55:22;22.67;;;6.97;;
